sensor_id;sensor_type;location;lat;lon;timestamp;temperature;humidity
1155;DHT22;566;48.414;9.118;2022-09-09T00:04:33;15.00;88.90
1155;DHT22;566;48.414;9.118;2022-09-09T00:07:37;15.20;88.70
1155;DHT22;566;48.414;9.118;2022-09-09T00:15:24;15.50;88.00
1155;DHT22;566;48.414;9.118;2022-09-09T00:20:21;15.30;89.30
1155;DHT22;566;48.414;9.118;2022-09-09T00:23:11;15.20;89.50
1155;DHT22;566;48.414;9.118;2022-09-09T00:28:22;14.90;90.50
1155;DHT22;566;48.414;9.118;2022-09-09T00:30:51;14.80;91.00
1155;DHT22;566;48.414;9.118;2022-09-09T00:33:23;14.80;91.00
1155;DHT22;566;48.414;9.118;2022-09-09T00:35:52;14.70;91.00
1155;DHT22;566;48.414;9.118;2022-09-09T00:38:49;14.70;91.10
1155;DHT22;566;48.414;9.118;2022-09-09T00:44:33;14.90;90.90
1155;DHT22;566;48.414;9.118;2022-09-09T00:47:04;15.00;90.70
1155;DHT22;566;48.414;9.118;2022-09-09T00:50:10;15.00;90.70
1155;DHT22;566;48.414;9.118;2022-09-09T00:57:45;15.00;91.10
1155;DHT22;566;48.414;9.118;2022-09-09T01:10:56;14.90;91.20
1155;DHT22;566;48.414;9.118;2022-09-09T01:13:32;14.90;91.10
1155;DHT22;566;48.414;9.118;2022-09-09T01:16:03;14.90;91.10
1155;DHT22;566;48.414;9.118;2022-09-09T01:18:43;15.00;90.90
1155;DHT22;566;48.414;9.118;2022-09-09T01:26:43;15.00;91.10
1155;DHT22;566;48.414;9.118;2022-09-09T01:29:11;15.00;91.40
1155;DHT22;566;48.414;9.118;2022-09-09T01:34:18;14.80;92.00
1155;DHT22;566;48.414;9.118;2022-09-09T01:37:05;14.80;92.20
1155;DHT22;566;48.414;9.118;2022-09-09T01:39:33;14.80;92.20
1155;DHT22;566;48.414;9.118;2022-09-09T01:41:59;14.80;92.30
1155;DHT22;566;48.414;9.118;2022-09-09T01:44:25;14.70;92.40
1155;DHT22;566;48.414;9.118;2022-09-09T01:46:51;14.70;92.60
1155;DHT22;566;48.414;9.118;2022-09-09T01:49:18;14.70;92.60
1155;DHT22;566;48.414;9.118;2022-09-09T01:51:48;14.70;92.50
1155;DHT22;566;48.414;9.118;2022-09-09T01:54:15;14.90;91.70
1155;DHT22;566;48.414;9.118;2022-09-09T01:56:43;15.00;91.50
1155;DHT22;566;48.414;9.118;2022-09-09T02:02:17;14.90;91.30
1155;DHT22;566;48.414;9.118;2022-09-09T02:04:52;15.00;91.20
1155;DHT22;566;48.414;9.118;2022-09-09T02:12:36;15.00;91.80
1155;DHT22;566;48.414;9.118;2022-09-09T02:15:11;15.00;92.20
1155;DHT22;566;48.414;9.118;2022-09-09T02:17:39;14.90;93.20
1155;DHT22;566;48.414;9.118;2022-09-09T02:20:11;14.70;94.30
1155;DHT22;566;48.414;9.118;2022-09-09T02:22:40;14.30;95.30
1155;DHT22;566;48.414;9.118;2022-09-09T02:25:13;14.10;95.80
1155;DHT22;566;48.414;9.118;2022-09-09T02:27:43;14.00;96.10
1155;DHT22;566;48.414;9.118;2022-09-09T02:30:13;13.90;96.80
1155;DHT22;566;48.414;9.118;2022-09-09T02:32:42;13.80;97.00
1155;DHT22;566;48.414;9.118;2022-09-09T02:35:15;13.70;97.50
1155;DHT22;566;48.414;9.118;2022-09-09T02:37:42;13.70;97.40
1155;DHT22;566;48.414;9.118;2022-09-09T02:40:13;13.70;97.50
1155;DHT22;566;48.414;9.118;2022-09-09T02:42:45;13.60;97.60
1155;DHT22;566;48.414;9.118;2022-09-09T02:45:14;13.50;97.40
1155;DHT22;566;48.414;9.118;2022-09-09T02:50:23;13.60;97.20
1155;DHT22;566;48.414;9.118;2022-09-09T02:53:24;13.70;96.90
1155;DHT22;566;48.414;9.118;2022-09-09T02:56:00;13.70;97.00
1155;DHT22;566;48.414;9.118;2022-09-09T02:58:27;13.70;97.30
1155;DHT22;566;48.414;9.118;2022-09-09T03:00:53;13.70;97.50
1155;DHT22;566;48.414;9.118;2022-09-09T03:03:20;13.80;97.40
1155;DHT22;566;48.414;9.118;2022-09-09T03:05:47;13.80;97.30
1155;DHT22;566;48.414;9.118;2022-09-09T03:08:13;13.80;97.40
1155;DHT22;566;48.414;9.118;2022-09-09T03:10:39;13.90;97.60
1155;DHT22;566;48.414;9.118;2022-09-09T03:13:05;13.80;97.70
1155;DHT22;566;48.414;9.118;2022-09-09T03:15:31;13.80;97.60
1155;DHT22;566;48.414;9.118;2022-09-09T03:17:58;13.70;97.80
1155;DHT22;566;48.414;9.118;2022-09-09T03:20:28;13.60;97.30
1155;DHT22;566;48.414;9.118;2022-09-09T03:22:55;13.50;97.60
1155;DHT22;566;48.414;9.118;2022-09-09T03:25:21;13.40;97.10
1155;DHT22;566;48.414;9.118;2022-09-09T03:27:49;13.30;95.90
1155;DHT22;566;48.414;9.118;2022-09-09T03:30:15;13.20;95.10
1155;DHT22;566;48.414;9.118;2022-09-09T03:32:44;13.10;93.40
1155;DHT22;566;48.414;9.118;2022-09-09T03:35:13;13.00;92.00
1155;DHT22;566;48.414;9.118;2022-09-09T03:37:45;12.90;91.20
1155;DHT22;566;48.414;9.118;2022-09-09T03:40:11;12.90;90.30
1155;DHT22;566;48.414;9.118;2022-09-09T03:42:37;12.80;90.70
1155;DHT22;566;48.414;9.118;2022-09-09T03:45:05;12.80;89.50
1155;DHT22;566;48.414;9.118;2022-09-09T03:47:31;12.80;88.60
1155;DHT22;566;48.414;9.118;2022-09-09T03:49:57;12.70;87.90
1155;DHT22;566;48.414;9.118;2022-09-09T03:52:22;12.60;86.40
1155;DHT22;566;48.414;9.118;2022-09-09T03:54:53;12.60;85.90
1155;DHT22;566;48.414;9.118;2022-09-09T03:57:20;12.60;84.90
1155;DHT22;566;48.414;9.118;2022-09-09T03:59:45;12.60;84.90
1155;DHT22;566;48.414;9.118;2022-09-09T04:02:14;12.50;84.80
1155;DHT22;566;48.414;9.118;2022-09-09T04:04:40;12.40;84.40
1155;DHT22;566;48.414;9.118;2022-09-09T04:07:06;12.40;84.20
1155;DHT22;566;48.414;9.118;2022-09-09T04:09:32;12.30;84.40
1155;DHT22;566;48.414;9.118;2022-09-09T04:11:58;12.30;84.70
1155;DHT22;566;48.414;9.118;2022-09-09T04:14:26;12.30;84.00
1155;DHT22;566;48.414;9.118;2022-09-09T04:16:56;12.20;83.50
1155;DHT22;566;48.414;9.118;2022-09-09T04:19:24;12.20;82.70
1155;DHT22;566;48.414;9.118;2022-09-09T04:21:53;12.20;82.50
1155;DHT22;566;48.414;9.118;2022-09-09T04:24:19;12.20;82.40
1155;DHT22;566;48.414;9.118;2022-09-09T04:26:45;12.10;82.10
1155;DHT22;566;48.414;9.118;2022-09-09T04:29:10;12.10;81.00
1155;DHT22;566;48.414;9.118;2022-09-09T04:31:36;12.10;80.40
1155;DHT22;566;48.414;9.118;2022-09-09T04:34:08;12.00;80.50
1155;DHT22;566;48.414;9.118;2022-09-09T04:36:33;12.00;80.30
1155;DHT22;566;48.414;9.118;2022-09-09T04:39:00;12.10;79.70
1155;DHT22;566;48.414;9.118;2022-09-09T04:41:27;12.10;80.00
1155;DHT22;566;48.414;9.118;2022-09-09T04:43:53;12.20;79.70
1155;DHT22;566;48.414;9.118;2022-09-09T04:46:20;12.20;80.40
1155;DHT22;566;48.414;9.118;2022-09-09T04:48:45;12.20;80.40
1155;DHT22;566;48.414;9.118;2022-09-09T04:51:13;12.20;80.20
1155;DHT22;566;48.414;9.118;2022-09-09T04:53:39;12.20;80.20
1155;DHT22;566;48.414;9.118;2022-09-09T04:56:11;12.20;80.50
1155;DHT22;566;48.414;9.118;2022-09-09T04:58:38;12.20;80.10
1155;DHT22;566;48.414;9.118;2022-09-09T05:01:14;12.20;80.20
1155;DHT22;566;48.414;9.118;2022-09-09T05:03:48;12.20;81.10
1155;DHT22;566;48.414;9.118;2022-09-09T05:06:16;12.30;80.30
1155;DHT22;566;48.414;9.118;2022-09-09T05:08:43;12.30;80.70
1155;DHT22;566;48.414;9.118;2022-09-09T05:13:42;12.40;81.40
1155;DHT22;566;48.414;9.118;2022-09-09T05:16:08;12.50;82.00
1155;DHT22;566;48.414;9.118;2022-09-09T05:18:39;12.50;82.60
1155;DHT22;566;48.414;9.118;2022-09-09T05:21:05;12.60;83.80
1155;DHT22;566;48.414;9.118;2022-09-09T05:23:32;12.70;84.90
1155;DHT22;566;48.414;9.118;2022-09-09T05:25:59;12.70;85.50
1155;DHT22;566;48.414;9.118;2022-09-09T05:28:26;12.80;86.50
1155;DHT22;566;48.414;9.118;2022-09-09T05:31:04;12.90;88.40
1155;DHT22;566;48.414;9.118;2022-09-09T05:33:31;13.00;89.60
1155;DHT22;566;48.414;9.118;2022-09-09T05:36:00;13.00;90.30
1155;DHT22;566;48.414;9.118;2022-09-09T05:38:27;13.10;90.20
1155;DHT22;566;48.414;9.118;2022-09-09T05:40:56;13.10;90.20
1155;DHT22;566;48.414;9.118;2022-09-09T05:43:25;13.20;91.40
1155;DHT22;566;48.414;9.118;2022-09-09T05:48:34;13.30;93.20
1155;DHT22;566;48.414;9.118;2022-09-09T05:51:00;13.40;93.30
1155;DHT22;566;48.414;9.118;2022-09-09T05:53:28;13.40;92.70
1155;DHT22;566;48.414;9.118;2022-09-09T05:58:32;13.60;95.20
1155;DHT22;566;48.414;9.118;2022-09-09T06:01:05;13.70;95.20
1155;DHT22;566;48.414;9.118;2022-09-09T06:03:34;13.70;96.30
1155;DHT22;566;48.414;9.118;2022-09-09T06:06:01;13.80;95.90
1155;DHT22;566;48.414;9.118;2022-09-09T06:08:27;13.90;96.90
1155;DHT22;566;48.414;9.118;2022-09-09T06:10:53;14.00;96.90
1155;DHT22;566;48.414;9.118;2022-09-09T06:13:19;14.20;96.10
1155;DHT22;566;48.414;9.118;2022-09-09T06:15:51;14.30;97.80
1155;DHT22;566;48.414;9.118;2022-09-09T06:18:18;14.50;98.00
1155;DHT22;566;48.414;9.118;2022-09-09T06:20:59;14.60;97.90
1155;DHT22;566;48.414;9.118;2022-09-09T06:23:30;14.80;98.00
1155;DHT22;566;48.414;9.118;2022-09-09T06:26:15;15.00;97.90
1155;DHT22;566;48.414;9.118;2022-09-09T06:28:42;15.00;98.00
1155;DHT22;566;48.414;9.118;2022-09-09T06:31:10;15.20;98.00
1155;DHT22;566;48.414;9.118;2022-09-09T06:33:37;15.40;98.00
1155;DHT22;566;48.414;9.118;2022-09-09T06:36:14;15.40;98.00
1155;DHT22;566;48.414;9.118;2022-09-09T06:38:43;15.40;98.00
1155;DHT22;566;48.414;9.118;2022-09-09T06:41:11;15.50;98.00
1155;DHT22;566;48.414;9.118;2022-09-09T06:43:38;15.50;98.00
1155;DHT22;566;48.414;9.118;2022-09-09T06:48:34;15.70;98.00
1155;DHT22;566;48.414;9.118;2022-09-09T06:53:28;15.90;98.00
1155;DHT22;566;48.414;9.118;2022-09-09T06:55:53;16.00;98.00
1155;DHT22;566;48.414;9.118;2022-09-09T06:58:20;16.10;98.00
1155;DHT22;566;48.414;9.118;2022-09-09T07:00:47;16.30;98.00
1155;DHT22;566;48.414;9.118;2022-09-09T07:03:13;16.40;98.00
1155;DHT22;566;48.414;9.118;2022-09-09T07:05:39;16.40;97.90
1155;DHT22;566;48.414;9.118;2022-09-09T07:08:04;16.50;97.70
1155;DHT22;566;48.414;9.118;2022-09-09T07:10:33;16.70;96.60
1155;DHT22;566;48.414;9.118;2022-09-09T07:12:59;16.80;96.70
1155;DHT22;566;48.414;9.118;2022-09-09T07:15:26;17.00;97.10
1155;DHT22;566;48.414;9.118;2022-09-09T07:17:52;17.00;95.60
1155;DHT22;566;48.414;9.118;2022-09-09T07:20:19;17.10;94.70
1155;DHT22;566;48.414;9.118;2022-09-09T07:22:45;17.40;95.40
1155;DHT22;566;48.414;9.118;2022-09-09T07:25:11;17.60;94.00
1155;DHT22;566;48.414;9.118;2022-09-09T07:27:37;17.80;93.90
1155;DHT22;566;48.414;9.118;2022-09-09T07:30:03;18.00;93.40
1155;DHT22;566;48.414;9.118;2022-09-09T07:32:29;18.10;91.40
1155;DHT22;566;48.414;9.118;2022-09-09T07:34:55;17.90;93.30
1155;DHT22;566;48.414;9.118;2022-09-09T07:37:23;18.20;92.70
1155;DHT22;566;48.414;9.118;2022-09-09T07:39:49;18.40;91.20
1155;DHT22;566;48.414;9.118;2022-09-09T07:42:16;18.30;90.90
1155;DHT22;566;48.414;9.118;2022-09-09T07:44:42;18.30;91.10
1155;DHT22;566;48.414;9.118;2022-09-09T07:47:07;18.50;89.60
1155;DHT22;566;48.414;9.118;2022-09-09T07:49:33;18.00;89.90
1155;DHT22;566;48.414;9.118;2022-09-09T07:52:05;17.70;91.10
1155;DHT22;566;48.414;9.118;2022-09-09T07:54:31;17.50;91.20
1155;DHT22;566;48.414;9.118;2022-09-09T07:56:56;17.50;92.20
1155;DHT22;566;48.414;9.118;2022-09-09T07:59:22;17.50;92.20
1155;DHT22;566;48.414;9.118;2022-09-09T08:01:49;17.60;93.10
1155;DHT22;566;48.414;9.118;2022-09-09T08:04:19;17.50;92.20
1155;DHT22;566;48.414;9.118;2022-09-09T08:06:54;17.40;93.50
1155;DHT22;566;48.414;9.118;2022-09-09T08:09:23;17.40;93.30
1155;DHT22;566;48.414;9.118;2022-09-09T08:11:54;17.50;94.10
1155;DHT22;566;48.414;9.118;2022-09-09T08:14:21;17.60;93.10
1155;DHT22;566;48.414;9.118;2022-09-09T08:16:49;17.60;92.90
1155;DHT22;566;48.414;9.118;2022-09-09T08:19:18;17.50;93.60
1155;DHT22;566;48.414;9.118;2022-09-09T08:21:44;17.10;94.00
1155;DHT22;566;48.414;9.118;2022-09-09T08:24:11;16.60;95.00
1155;DHT22;566;48.414;9.118;2022-09-09T08:26:39;16.40;96.40
1155;DHT22;566;48.414;9.118;2022-09-09T08:29:08;16.30;97.10
1155;DHT22;566;48.414;9.118;2022-09-09T08:31:37;16.20;96.00
1155;DHT22;566;48.414;9.118;2022-09-09T08:34:05;16.20;95.70
1155;DHT22;566;48.414;9.118;2022-09-09T08:36:36;16.20;96.50
1155;DHT22;566;48.414;9.118;2022-09-09T08:39:03;16.50;97.20
1155;DHT22;566;48.414;9.118;2022-09-09T08:44:11;16.90;95.10
1155;DHT22;566;48.414;9.118;2022-09-09T08:52:38;17.40;93.70
1155;DHT22;566;48.414;9.118;2022-09-09T08:57:53;18.00;92.70
1155;DHT22;566;48.414;9.118;2022-09-09T09:00:20;18.40;93.40
1155;DHT22;566;48.414;9.118;2022-09-09T09:03:05;19.00;89.10
1155;DHT22;566;48.414;9.118;2022-09-09T09:08:53;19.20;87.40
1155;DHT22;566;48.414;9.118;2022-09-09T09:11:22;19.30;88.90
1155;DHT22;566;48.414;9.118;2022-09-09T09:13:58;19.10;87.00
1155;DHT22;566;48.414;9.118;2022-09-09T09:16:53;18.80;87.40
1155;DHT22;566;48.414;9.118;2022-09-09T09:19:19;18.80;88.20
1155;DHT22;566;48.414;9.118;2022-09-09T09:22:53;19.90;85.40
1155;DHT22;566;48.414;9.118;2022-09-09T09:25:20;21.40;81.50
1155;DHT22;566;48.414;9.118;2022-09-09T09:28:12;22.20;77.30
1155;DHT22;566;48.414;9.118;2022-09-09T09:30:47;22.20;78.40
1155;DHT22;566;48.414;9.118;2022-09-09T09:35:39;22.60;75.30
1155;DHT22;566;48.414;9.118;2022-09-09T09:38:26;22.90;74.10
1155;DHT22;566;48.414;9.118;2022-09-09T09:40:57;22.90;73.50
1155;DHT22;566;48.414;9.118;2022-09-09T09:43:31;23.00;72.00
1155;DHT22;566;48.414;9.118;2022-09-09T09:45:57;23.40;72.30
1155;DHT22;566;48.414;9.118;2022-09-09T09:48:24;23.80;69.10
1155;DHT22;566;48.414;9.118;2022-09-09T09:50:58;22.80;71.50
1155;DHT22;566;48.414;9.118;2022-09-09T09:53:29;21.90;74.20
1155;DHT22;566;48.414;9.118;2022-09-09T09:56:13;21.50;76.40
1155;DHT22;566;48.414;9.118;2022-09-09T10:01:22;21.50;75.30
1155;DHT22;566;48.414;9.118;2022-09-09T10:03:54;21.30;76.60
1155;DHT22;566;48.414;9.118;2022-09-09T10:06:36;20.80;77.80
1155;DHT22;566;48.414;9.118;2022-09-09T10:09:17;20.40;78.80
1155;DHT22;566;48.414;9.118;2022-09-09T10:27:05;22.40;73.40
1155;DHT22;566;48.414;9.118;2022-09-09T10:29:43;21.50;73.00
1155;DHT22;566;48.414;9.118;2022-09-09T10:35:28;21.30;73.30
1155;DHT22;566;48.414;9.118;2022-09-09T10:57:22;21.80;70.20
1155;DHT22;566;48.414;9.118;2022-09-09T10:59:55;22.40;71.50
1155;DHT22;566;48.414;9.118;2022-09-09T11:02:30;22.80;67.80
1155;DHT22;566;48.414;9.118;2022-09-09T11:05:15;22.80;66.40
1155;DHT22;566;48.414;9.118;2022-09-09T11:07:49;22.20;68.90
1155;DHT22;566;48.414;9.118;2022-09-09T11:12:47;22.40;70.00
1155;DHT22;566;48.414;9.118;2022-09-09T11:15:43;22.70;68.90
1155;DHT22;566;48.414;9.118;2022-09-09T11:18:18;22.40;68.70
1155;DHT22;566;48.414;9.118;2022-09-09T11:20:47;22.20;69.50
1155;DHT22;566;48.414;9.118;2022-09-09T11:23:19;22.10;70.60
1155;DHT22;566;48.414;9.118;2022-09-09T11:25:57;23.10;69.00
1155;DHT22;566;48.414;9.118;2022-09-09T11:28:40;23.80;67.40
1155;DHT22;566;48.414;9.118;2022-09-09T11:40:14;25.40;65.20
1155;DHT22;566;48.414;9.118;2022-09-09T11:42:29;24.00;65.40
1155;DHT22;566;48.414;9.118;2022-09-09T11:44:55;21.90;71.10
1155;DHT22;566;48.414;9.118;2022-09-09T11:47:27;21.10;73.40
1155;DHT22;566;48.414;9.118;2022-09-09T11:50:26;20.30;75.40
1155;DHT22;566;48.414;9.118;2022-09-09T11:55:39;19.50;78.40
1155;DHT22;566;48.414;9.118;2022-09-09T11:58:14;19.60;78.50
1155;DHT22;566;48.414;9.118;2022-09-09T12:00:43;19.60;77.50
1155;DHT22;566;48.414;9.118;2022-09-09T12:03:35;20.00;77.10
1155;DHT22;566;48.414;9.118;2022-09-09T12:08:42;20.60;74.30
1155;DHT22;566;48.414;9.118;2022-09-09T12:11:08;20.50;73.80
1155;DHT22;566;48.414;9.118;2022-09-09T12:13:34;20.50;75.40
1155;DHT22;566;48.414;9.118;2022-09-09T12:16:00;20.80;73.80
1155;DHT22;566;48.414;9.118;2022-09-09T12:18:38;21.20;73.00
1155;DHT22;566;48.414;9.118;2022-09-09T12:23:52;21.70;70.20
1155;DHT22;566;48.414;9.118;2022-09-09T12:26:36;21.40;71.80
1155;DHT22;566;48.414;9.118;2022-09-09T12:29:18;20.90;71.50
1155;DHT22;566;48.414;9.118;2022-09-09T12:37:38;21.70;72.00
1155;DHT22;566;48.414;9.118;2022-09-09T12:40:29;21.30;71.60
1155;DHT22;566;48.414;9.118;2022-09-09T12:42:55;20.40;74.40
1155;DHT22;566;48.414;9.118;2022-09-09T12:45:25;20.50;75.20
1155;DHT22;566;48.414;9.118;2022-09-09T12:48:00;19.90;76.60
1155;DHT22;566;48.414;9.118;2022-09-09T12:50:32;19.60;78.20
1155;DHT22;566;48.414;9.118;2022-09-09T12:53:06;19.90;78.90
1155;DHT22;566;48.414;9.118;2022-09-09T12:55:36;20.00;77.30
1155;DHT22;566;48.414;9.118;2022-09-09T12:58:04;20.20;76.80
1155;DHT22;566;48.414;9.118;2022-09-09T13:00:32;20.30;77.10
1155;DHT22;566;48.414;9.118;2022-09-09T13:03:00;20.40;73.70
1155;DHT22;566;48.414;9.118;2022-09-09T13:05:28;20.30;74.40
1155;DHT22;566;48.414;9.118;2022-09-09T13:08:07;20.80;74.40
1155;DHT22;566;48.414;9.118;2022-09-09T13:10:59;20.90;71.60
1155;DHT22;566;48.414;9.118;2022-09-09T13:13:41;20.70;73.60
1155;DHT22;566;48.414;9.118;2022-09-09T13:16:28;21.10;72.50
1155;DHT22;566;48.414;9.118;2022-09-09T13:19:06;21.30;71.40
1155;DHT22;566;48.414;9.118;2022-09-09T13:21:37;21.60;70.20
1155;DHT22;566;48.414;9.118;2022-09-09T13:24:05;21.20;70.70
1155;DHT22;566;48.414;9.118;2022-09-09T13:26:33;20.80;71.00
1155;DHT22;566;48.414;9.118;2022-09-09T13:29:18;20.30;72.40
1155;DHT22;566;48.414;9.118;2022-09-09T13:31:45;20.60;73.10
1155;DHT22;566;48.414;9.118;2022-09-09T13:34:30;21.10;71.80
1155;DHT22;566;48.414;9.118;2022-09-09T13:37:02;20.90;72.40
1155;DHT22;566;48.414;9.118;2022-09-09T13:39:33;20.50;73.00
1155;DHT22;566;48.414;9.118;2022-09-09T13:41:59;20.00;72.50
1155;DHT22;566;48.414;9.118;2022-09-09T13:44:25;20.50;73.40
1155;DHT22;566;48.414;9.118;2022-09-09T13:47:15;21.50;71.40
1155;DHT22;566;48.414;9.118;2022-09-09T13:49:43;22.30;69.40
1155;DHT22;566;48.414;9.118;2022-09-09T13:52:13;22.90;67.00
1155;DHT22;566;48.414;9.118;2022-09-09T13:54:40;22.80;66.10
1155;DHT22;566;48.414;9.118;2022-09-09T13:57:18;22.40;64.90
1155;DHT22;566;48.414;9.118;2022-09-09T13:59:46;21.80;65.60
1155;DHT22;566;48.414;9.118;2022-09-09T14:02:14;21.60;67.00
1155;DHT22;566;48.414;9.118;2022-09-09T14:04:40;21.90;66.70
1155;DHT22;566;48.414;9.118;2022-09-09T14:07:16;22.50;65.60
1155;DHT22;566;48.414;9.118;2022-09-09T14:09:42;22.80;65.00
1155;DHT22;566;48.414;9.118;2022-09-09T14:12:11;23.10;63.00
1155;DHT22;566;48.414;9.118;2022-09-09T14:14:37;22.90;63.70
1155;DHT22;566;48.414;9.118;2022-09-09T14:17:06;22.80;65.00
1155;DHT22;566;48.414;9.118;2022-09-09T14:19:32;22.90;64.50
1155;DHT22;566;48.414;9.118;2022-09-09T14:21:58;23.20;64.00
1155;DHT22;566;48.414;9.118;2022-09-09T14:24:24;23.50;64.20
1155;DHT22;566;48.414;9.118;2022-09-09T14:26:50;23.20;65.10
1155;DHT22;566;48.414;9.118;2022-09-09T14:29:16;22.80;66.00
1155;DHT22;566;48.414;9.118;2022-09-09T14:31:42;23.20;65.70
1155;DHT22;566;48.414;9.118;2022-09-09T14:34:07;23.50;65.10
1155;DHT22;566;48.414;9.118;2022-09-09T14:36:35;23.90;61.80
1155;DHT22;566;48.414;9.118;2022-09-09T14:39:01;23.30;61.70
1155;DHT22;566;48.414;9.118;2022-09-09T14:41:26;23.00;63.80
1155;DHT22;566;48.414;9.118;2022-09-09T14:43:54;23.10;63.00
1155;DHT22;566;48.414;9.118;2022-09-09T14:46:20;22.90;63.50
1155;DHT22;566;48.414;9.118;2022-09-09T14:48:46;23.30;63.50
1155;DHT22;566;48.414;9.118;2022-09-09T14:51:21;23.70;63.10
1155;DHT22;566;48.414;9.118;2022-09-09T14:53:50;23.40;62.80
1155;DHT22;566;48.414;9.118;2022-09-09T14:56:19;23.50;63.10
1155;DHT22;566;48.414;9.118;2022-09-09T14:58:45;23.60;63.00
1155;DHT22;566;48.414;9.118;2022-09-09T15:01:15;23.90;62.70
1155;DHT22;566;48.414;9.118;2022-09-09T15:03:42;23.80;61.70
1155;DHT22;566;48.414;9.118;2022-09-09T15:06:13;23.60;63.00
1155;DHT22;566;48.414;9.118;2022-09-09T15:08:41;23.30;62.90
1155;DHT22;566;48.414;9.118;2022-09-09T15:11:08;22.40;64.20
1155;DHT22;566;48.414;9.118;2022-09-09T15:13:35;21.70;66.70
1155;DHT22;566;48.414;9.118;2022-09-09T15:16:14;21.40;67.90
1155;DHT22;566;48.414;9.118;2022-09-09T15:18:40;20.60;69.00
1155;DHT22;566;48.414;9.118;2022-09-09T15:21:09;20.30;69.70
1155;DHT22;566;48.414;9.118;2022-09-09T15:23:37;20.60;69.40
1155;DHT22;566;48.414;9.118;2022-09-09T15:26:04;20.60;68.30
1155;DHT22;566;48.414;9.118;2022-09-09T15:28:32;20.90;66.70
1155;DHT22;566;48.414;9.118;2022-09-09T15:31:11;20.80;64.90
1155;DHT22;566;48.414;9.118;2022-09-09T15:33:37;20.10;67.10
1155;DHT22;566;48.414;9.118;2022-09-09T15:36:15;19.70;68.20
1155;DHT22;566;48.414;9.118;2022-09-09T15:38:47;19.20;69.30
1155;DHT22;566;48.414;9.118;2022-09-09T15:41:13;19.30;69.60
1155;DHT22;566;48.414;9.118;2022-09-09T15:43:43;20.30;67.30
1155;DHT22;566;48.414;9.118;2022-09-09T15:46:38;21.40;65.60
1155;DHT22;566;48.414;9.118;2022-09-09T15:51:34;22.80;62.50
1155;DHT22;566;48.414;9.118;2022-09-09T15:54:00;23.40;60.80
1155;DHT22;566;48.414;9.118;2022-09-09T15:56:27;23.70;60.80
1155;DHT22;566;48.414;9.118;2022-09-09T15:58:55;24.40;59.20
1155;DHT22;566;48.414;9.118;2022-09-09T16:01:21;24.40;58.80
1155;DHT22;566;48.414;9.118;2022-09-09T16:03:47;24.30;59.90
1155;DHT22;566;48.414;9.118;2022-09-09T16:06:21;22.40;61.70
1155;DHT22;566;48.414;9.118;2022-09-09T16:08:48;21.10;65.60
1155;DHT22;566;48.414;9.118;2022-09-09T16:11:21;20.20;67.20
1155;DHT22;566;48.414;9.118;2022-09-09T16:13:49;19.60;69.40
1155;DHT22;566;48.414;9.118;2022-09-09T16:16:16;19.50;70.40
1155;DHT22;566;48.414;9.118;2022-09-09T16:18:44;20.20;69.10
1155;DHT22;566;48.414;9.118;2022-09-09T16:23:51;21.30;67.20
1155;DHT22;566;48.414;9.118;2022-09-09T16:26:18;21.50;67.30
1155;DHT22;566;48.414;9.118;2022-09-09T16:28:45;22.20;65.90
1155;DHT22;566;48.414;9.118;2022-09-09T16:31:19;21.60;66.50
1155;DHT22;566;48.414;9.118;2022-09-09T16:33:45;20.40;69.40
1155;DHT22;566;48.414;9.118;2022-09-09T16:36:17;19.80;70.80
1155;DHT22;566;48.414;9.118;2022-09-09T16:38:43;19.20;73.00
1155;DHT22;566;48.414;9.118;2022-09-09T16:41:13;18.70;74.40
1155;DHT22;566;48.414;9.118;2022-09-09T16:43:40;18.40;75.60
1155;DHT22;566;48.414;9.118;2022-09-09T16:46:14;18.20;76.50
1155;DHT22;566;48.414;9.118;2022-09-09T16:48:41;17.90;77.60
1155;DHT22;566;48.414;9.118;2022-09-09T16:51:15;17.70;78.70
1155;DHT22;566;48.414;9.118;2022-09-09T16:53:43;17.60;79.40
1155;DHT22;566;48.414;9.118;2022-09-09T16:56:12;17.50;79.80
1155;DHT22;566;48.414;9.118;2022-09-09T16:58:38;17.40;80.30
1155;DHT22;566;48.414;9.118;2022-09-09T17:01:04;17.40;79.90
1155;DHT22;566;48.414;9.118;2022-09-09T17:03:31;17.40;80.40
1155;DHT22;566;48.414;9.118;2022-09-09T17:05:58;17.30;80.90
1155;DHT22;566;48.414;9.118;2022-09-09T17:08:28;17.90;79.60
1155;DHT22;566;48.414;9.118;2022-09-09T17:10:54;18.10;78.40
1155;DHT22;566;48.414;9.118;2022-09-09T17:13:20;17.80;79.60
1155;DHT22;566;48.414;9.118;2022-09-09T17:15:46;18.10;79.50
1155;DHT22;566;48.414;9.118;2022-09-09T17:18:12;18.50;78.20
1155;DHT22;566;48.414;9.118;2022-09-09T17:20:41;18.20;78.70
1155;DHT22;566;48.414;9.118;2022-09-09T17:23:08;17.80;80.20
1155;DHT22;566;48.414;9.118;2022-09-09T17:25:34;17.40;81.30
1155;DHT22;566;48.414;9.118;2022-09-09T17:28:01;17.20;82.10
1155;DHT22;566;48.414;9.118;2022-09-09T17:30:33;17.00;82.80
1155;DHT22;566;48.414;9.118;2022-09-09T17:32:59;16.80;83.90
1155;DHT22;566;48.414;9.118;2022-09-09T17:35:25;16.60;85.40
1155;DHT22;566;48.414;9.118;2022-09-09T17:37:53;16.40;86.30
1155;DHT22;566;48.414;9.118;2022-09-09T17:40:20;16.20;87.00
1155;DHT22;566;48.414;9.118;2022-09-09T17:42:46;16.10;87.50
1155;DHT22;566;48.414;9.118;2022-09-09T17:45:12;15.90;87.30
1155;DHT22;566;48.414;9.118;2022-09-09T17:47:38;15.80;87.00
1155;DHT22;566;48.414;9.118;2022-09-09T17:50:05;15.70;87.60
1155;DHT22;566;48.414;9.118;2022-09-09T17:52:32;15.60;88.10
1155;DHT22;566;48.414;9.118;2022-09-09T17:54:58;15.70;87.50
1155;DHT22;566;48.414;9.118;2022-09-09T17:57:24;15.70;87.10
1155;DHT22;566;48.414;9.118;2022-09-09T17:59:50;15.70;87.20
1155;DHT22;566;48.414;9.118;2022-09-09T18:02:19;15.80;86.50
1155;DHT22;566;48.414;9.118;2022-09-09T18:04:44;15.80;86.30
1155;DHT22;566;48.414;9.118;2022-09-09T18:07:11;15.90;86.10
1155;DHT22;566;48.414;9.118;2022-09-09T18:09:38;16.00;85.70
1155;DHT22;566;48.414;9.118;2022-09-09T18:12:05;16.10;85.90
1155;DHT22;566;48.414;9.118;2022-09-09T18:14:32;16.10;86.00
1155;DHT22;566;48.414;9.118;2022-09-09T18:17:00;16.10;86.00
1155;DHT22;566;48.414;9.118;2022-09-09T18:19:28;16.10;86.20
1155;DHT22;566;48.414;9.118;2022-09-09T18:21:55;16.00;88.10
1155;DHT22;566;48.414;9.118;2022-09-09T18:24:22;15.70;89.00
1155;DHT22;566;48.414;9.118;2022-09-09T18:26:49;15.40;89.70
1155;DHT22;566;48.414;9.118;2022-09-09T18:29:22;15.20;90.70
1155;DHT22;566;48.414;9.118;2022-09-09T18:31:50;15.00;91.80
1155;DHT22;566;48.414;9.118;2022-09-09T18:34:19;14.80;92.10
1155;DHT22;566;48.414;9.118;2022-09-09T18:36:49;14.70;91.70
1155;DHT22;566;48.414;9.118;2022-09-09T18:39:21;14.70;92.80
1155;DHT22;566;48.414;9.118;2022-09-09T18:41:53;14.80;91.20
1155;DHT22;566;48.414;9.118;2022-09-09T18:44:25;14.90;90.40
1155;DHT22;566;48.414;9.118;2022-09-09T18:46:51;14.90;90.80
1155;DHT22;566;48.414;9.118;2022-09-09T18:49:18;14.90;90.40
1155;DHT22;566;48.414;9.118;2022-09-09T18:51:45;14.90;90.50
1155;DHT22;566;48.414;9.118;2022-09-09T18:54:16;15.00;90.30
1155;DHT22;566;48.414;9.118;2022-09-09T18:56:43;15.00;90.30
1155;DHT22;566;48.414;9.118;2022-09-09T18:59:12;15.00;90.50
1155;DHT22;566;48.414;9.118;2022-09-09T19:01:38;15.10;90.40
1155;DHT22;566;48.414;9.118;2022-09-09T19:04:06;15.20;90.10
1155;DHT22;566;48.414;9.118;2022-09-09T19:06:33;15.20;90.00
1155;DHT22;566;48.414;9.118;2022-09-09T19:08:59;15.30;90.20